createdAt,value
2018-06-10T00:01:17.277Z,18.00
2018-06-10T00:03:44.391Z,18.13
2018-06-10T00:06:11.537Z,19.90
2018-06-10T00:08:38.664Z,19.50
2018-06-10T00:11:05.850Z,18.87
2018-06-10T00:13:32.976Z,19.93
2018-06-10T00:16:00.148Z,18.33
2018-06-10T00:18:27.325Z,18.00
2018-06-10T00:20:54.480Z,19.53
2018-06-10T00:23:21.612Z,16.87
2018-06-10T00:25:48.753Z,20.73
2018-06-10T00:28:20.425Z,19.33
2018-06-10T00:30:47.552Z,20.77
2018-06-10T00:33:14.656Z,18.77
2018-06-10T00:35:41.804Z,19.03
2018-06-10T00:38:08.892Z,18.00
2018-06-10T00:40:36.027Z,19.77
2018-06-10T00:43:03.204Z,17.73
2018-06-10T00:45:30.341Z,20.90
2018-06-10T00:47:57.511Z,20.90
2018-06-10T00:50:24.688Z,17.73
2018-06-10T00:52:51.848Z,18.40
2018-06-10T00:55:19.108Z,22.73
2018-06-10T00:57:46.273Z,23.47
2018-06-10T01:00:13.420Z,24.37
2018-06-10T01:02:40.536Z,21.47
2018-06-10T01:05:07.681Z,23.97
2018-06-10T01:07:34.836Z,25.23
2018-06-10T01:10:01.972Z,30.50
2018-06-10T01:12:29.157Z,21.33
2018-06-10T01:14:56.321Z,24.20
2018-06-10T01:17:23.481Z,26.50
2018-06-10T01:19:50.634Z,21.53
2018-06-10T01:22:17.784Z,25.73
2018-06-10T01:24:44.933Z,22.37
2018-06-10T01:27:12.092Z,20.80
2018-06-10T01:29:39.225Z,23.93
2018-06-10T01:32:06.400Z,18.97
2018-06-10T01:34:33.554Z,18.43
2018-06-10T01:37:00.712Z,31.60
2018-06-10T01:39:27.815Z,25.13
2018-06-10T01:41:54.973Z,20.80
2018-06-10T01:44:22.082Z,28.73
2018-06-10T01:46:49.202Z,31.80
2018-06-10T01:49:16.301Z,28.10
2018-06-10T01:51:43.479Z,20.53
2018-06-10T01:54:11.558Z,30.03
2018-06-10T01:56:38.847Z,20.50
2018-06-10T01:59:05.993Z,30.33
2018-06-10T02:01:33.172Z,33.03
2018-06-10T02:04:00.278Z,23.63
2018-06-10T02:06:27.442Z,20.50
2018-06-10T02:08:54.592Z,20.37
2018-06-10T02:11:21.743Z,19.40
2018-06-10T02:13:48.873Z,21.57
2018-06-10T02:16:16.017Z,21.20
2018-06-10T02:18:43.176Z,27.67
2018-06-10T02:21:10.334Z,27.57
2018-06-10T02:23:37.456Z,23.07
2018-06-10T02:26:04.589Z,24.83
2018-06-10T02:28:31.754Z,24.13
2018-06-10T02:30:58.892Z,18.97
2018-06-10T02:33:25.980Z,29.47
2018-06-10T02:35:53.109Z,24.53
2018-06-10T02:38:20.253Z,19.23
2018-06-10T02:40:47.433Z,30.20
2018-06-10T02:43:14.584Z,29.00
2018-06-10T02:45:41.764Z,40.73
2018-06-10T02:48:08.903Z,25.60
2018-06-10T02:50:36.079Z,23.20
2018-06-10T02:53:03.236Z,40.20
2018-06-10T02:55:30.477Z,25.17
2018-06-10T02:57:57.620Z,29.77
2018-06-10T03:00:24.762Z,38.23
2018-06-10T03:02:51.960Z,23.40
2018-06-10T03:05:19.103Z,21.80
2018-06-10T03:07:46.268Z,30.40
2018-06-10T03:10:13.371Z,35.17
2018-06-10T03:12:40.519Z,43.20
2018-06-10T03:15:07.673Z,24.70
2018-06-10T03:17:34.833Z,45.30
2018-06-10T03:20:02.000Z,25.70
2018-06-10T03:22:29.176Z,23.33
2018-06-10T03:24:56.372Z,28.80
2018-06-10T03:27:23.529Z,26.20
2018-06-10T03:29:50.685Z,17.87
2018-06-10T03:32:17.820Z,28.03
2018-06-10T03:34:44.943Z,17.73
2018-06-10T03:37:12.096Z,21.77
2018-06-10T03:39:39.304Z,21.73
2018-06-10T03:42:06.461Z,22.63
2018-06-10T03:44:33.584Z,21.10
2018-06-10T03:47:00.697Z,17.63
2018-06-10T03:49:27.844Z,27.33
2018-06-10T03:51:54.937Z,19.03
2018-06-10T03:54:22.055Z,20.30
2018-06-10T03:56:49.237Z,19.07
2018-06-10T03:59:16.340Z,18.57
2018-06-10T04:01:43.539Z,16.73
2018-06-10T04:04:10.666Z,18.70
2018-06-10T04:06:37.803Z,18.43
2018-06-10T04:09:06.228Z,18.20
2018-06-10T04:11:33.368Z,18.87
2018-06-10T04:14:00.521Z,16.60
2018-06-10T04:16:28.396Z,19.27
2018-06-10T04:18:55.907Z,17.90
2018-06-10T04:21:23.069Z,21.50
2018-06-10T04:23:50.195Z,18.87
2018-06-10T04:26:17.327Z,18.87
2018-06-10T04:28:44.514Z,19.43
2018-06-10T04:31:11.663Z,18.20
2018-06-10T04:33:38.796Z,18.73
2018-06-10T04:36:05.983Z,17.10
2018-06-10T04:38:33.088Z,19.50
2018-06-10T04:41:00.275Z,25.40
2018-06-10T04:43:27.424Z,22.33
2018-06-10T04:45:54.545Z,25.23
2018-06-10T04:48:21.689Z,19.43
2018-06-10T04:50:48.848Z,22.17
2018-06-10T04:53:15.997Z,19.77
2018-06-10T04:55:43.213Z,17.50
2018-06-10T04:58:10.586Z,18.90
2018-06-10T05:00:37.741Z,18.00
2018-06-10T05:03:04.927Z,18.17
2018-06-10T05:05:32.048Z,28.07
2018-06-10T05:07:59.215Z,17.93
2018-06-10T05:10:26.342Z,18.30
2018-06-10T05:12:53.444Z,16.73
2018-06-10T05:15:20.558Z,17.30
2018-06-10T05:17:47.741Z,17.67
2018-06-10T05:20:14.925Z,17.00
2018-06-10T05:22:42.018Z,14.97
2018-06-10T05:25:09.149Z,15.43
2018-06-10T05:27:36.305Z,14.87
2018-06-10T05:30:03.599Z,15.80
2018-06-10T05:32:30.796Z,16.37
2018-06-10T05:34:57.940Z,17.73
2018-06-10T05:37:25.084Z,17.33
2018-06-10T05:39:52.248Z,18.60
2018-06-10T05:42:19.373Z,15.90
2018-06-10T05:44:46.488Z,18.57
2018-06-10T05:47:13.648Z,25.27
2018-06-10T05:49:40.801Z,22.47
2018-06-10T05:52:07.986Z,16.67
2018-06-10T05:54:35.147Z,17.63
2018-06-10T05:57:02.292Z,17.57
2018-06-10T05:59:29.450Z,15.97
2018-06-10T06:01:56.666Z,16.63
2018-06-10T06:04:23.812Z,16.73
2018-06-10T06:06:50.999Z,18.00
2018-06-10T06:09:18.128Z,17.67
2018-06-10T06:11:45.299Z,19.70
2018-06-10T06:14:12.429Z,22.47
2018-06-10T06:16:39.604Z,18.30
2018-06-10T06:19:06.709Z,19.43
2018-06-10T06:21:33.808Z,16.63
2018-06-10T06:24:00.936Z,21.33
2018-06-10T06:26:28.136Z,20.33
2018-06-10T06:28:55.312Z,18.50
2018-06-10T06:31:22.455Z,20.30
2018-06-10T06:33:49.591Z,23.77
2018-06-10T06:36:16.875Z,20.83
2018-06-10T06:38:44.033Z,19.90
2018-06-10T06:41:11.218Z,19.10
2018-06-10T06:43:38.352Z,19.97
2018-06-10T06:46:05.522Z,21.00
2018-06-10T06:48:32.645Z,24.10
2018-06-10T06:50:59.763Z,20.90
2018-06-10T06:53:26.869Z,20.30
2018-06-10T06:55:54.101Z,21.47
2018-06-10T06:58:21.195Z,23.77
2018-06-10T07:00:48.356Z,20.63
2018-06-10T07:03:15.512Z,26.73
2018-06-10T07:05:42.673Z,23.80
2018-06-10T07:08:09.841Z,22.90
2018-06-10T07:10:37.042Z,25.47
2018-06-10T07:13:04.161Z,23.30
2018-06-10T07:15:31.327Z,21.33
2018-06-10T07:17:58.496Z,21.83
2018-06-10T07:20:32.524Z,23.80
2018-06-10T07:22:59.755Z,24.60
2018-06-10T07:25:26.908Z,21.60
2018-06-10T07:27:54.042Z,21.97
2018-06-10T07:30:21.198Z,21.20
2018-06-10T07:32:48.324Z,20.07
2018-06-10T07:35:15.413Z,19.87
2018-06-10T07:37:42.517Z,20.53
2018-06-10T07:40:09.713Z,18.60
2018-06-10T07:42:36.846Z,20.23
2018-06-10T07:45:03.964Z,20.27
2018-06-10T07:47:31.090Z,19.80
2018-06-10T07:49:58.262Z,20.60
2018-06-10T07:52:25.516Z,19.17
2018-06-10T07:54:52.683Z,22.77
2018-06-10T07:57:19.860Z,21.00
2018-06-10T07:59:47.055Z,17.83
2018-06-10T08:02:14.212Z,18.53
2018-06-10T08:04:41.367Z,17.87
2018-06-10T08:07:08.557Z,19.23
2018-06-10T08:09:35.796Z,17.30
2018-06-10T08:12:02.967Z,19.47
2018-06-10T08:14:30.118Z,18.70
2018-06-10T08:16:57.315Z,17.83
2018-06-10T08:19:24.486Z,14.43
2018-06-10T08:21:51.681Z,14.10
2018-06-10T08:24:18.842Z,12.67
2018-06-10T08:26:45.985Z,14.07
2018-06-10T08:29:13.140Z,13.20
2018-06-10T08:31:40.310Z,13.10
2018-06-10T08:34:07.468Z,12.83
2018-06-10T08:36:34.628Z,13.07
2018-06-10T08:39:01.814Z,13.17
2018-06-10T08:41:28.936Z,12.63
2018-06-10T08:43:56.152Z,13.30
2018-06-10T08:46:23.230Z,12.83
2018-06-10T08:48:50.407Z,12.47
2018-06-10T08:51:17.544Z,11.37
2018-06-10T08:53:44.673Z,14.03
2018-06-10T08:56:11.792Z,13.23
2018-06-10T08:58:38.967Z,15.10
2018-06-10T09:01:06.093Z,13.33
2018-06-10T09:03:33.236Z,12.97
2018-06-10T09:06:00.395Z,15.77
2018-06-10T09:08:27.604Z,14.10
2018-06-10T09:10:54.735Z,12.80
2018-06-10T09:13:21.868Z,14.93
2018-06-10T09:15:49.002Z,14.23
2018-06-10T09:18:16.115Z,12.60
2018-06-10T09:20:43.251Z,11.30
2018-06-10T09:23:10.351Z,12.40
2018-06-10T09:25:37.463Z,13.93
2018-06-10T09:28:04.813Z,11.30
2018-06-10T09:30:31.968Z,11.97
2018-06-10T09:32:59.151Z,12.07
2018-06-10T09:35:26.308Z,11.10
2018-06-10T09:37:53.452Z,12.67
2018-06-10T09:40:20.637Z,11.97
2018-06-10T09:42:47.793Z,13.23
2018-06-10T09:45:14.929Z,10.60
2018-06-10T09:47:42.050Z,10.93
2018-06-10T09:50:09.228Z,10.47
2018-06-10T09:52:36.382Z,9.87
2018-06-10T09:55:03.655Z,11.00
2018-06-10T09:57:30.750Z,9.00
2018-06-10T09:59:57.895Z,9.90
2018-06-10T10:02:25.064Z,9.03
2018-06-10T10:04:52.202Z,8.23
2018-06-10T10:07:19.356Z,9.83
2018-06-10T10:09:46.480Z,9.40
2018-06-10T10:12:13.647Z,8.30
2018-06-10T10:14:40.832Z,8.73
2018-06-10T10:17:07.943Z,9.47
2018-06-10T10:19:35.048Z,8.90
2018-06-10T10:22:02.291Z,9.80
2018-06-10T10:24:29.408Z,9.43
2018-06-10T10:26:56.566Z,9.17
2018-06-10T10:29:23.733Z,10.93
2018-06-10T10:31:50.899Z,8.13
2018-06-10T10:34:18.024Z,9.30
2018-06-10T10:36:45.135Z,8.47
2018-06-10T10:39:12.374Z,9.30
2018-06-10T10:41:39.505Z,9.17
2018-06-10T10:44:06.624Z,7.53
2018-06-10T10:46:33.779Z,7.57
2018-06-10T10:49:00.916Z,7.77
2018-06-10T10:51:28.134Z,8.10
2018-06-10T10:53:55.237Z,8.60
2018-06-10T10:56:22.385Z,7.73
2018-06-10T10:58:49.538Z,7.73
2018-06-10T11:01:16.800Z,8.47
2018-06-10T11:03:44.024Z,9.30
2018-06-10T11:06:11.117Z,8.90
2018-06-10T11:08:38.231Z,8.23
2018-06-10T11:11:05.470Z,8.70
2018-06-10T11:13:32.580Z,9.27
2018-06-10T11:15:59.715Z,9.13
2018-06-10T11:18:26.861Z,8.63
2018-06-10T11:20:54.006Z,7.07
2018-06-10T11:23:21.132Z,8.17
2018-06-10T11:25:48.301Z,6.83
2018-06-10T11:28:15.660Z,7.47
2018-06-10T11:30:42.831Z,6.23
2018-06-10T11:33:10.021Z,6.17
2018-06-10T11:35:37.120Z,6.53
2018-06-10T11:38:04.265Z,5.47
2018-06-10T11:40:31.388Z,6.00
2018-06-10T11:42:58.620Z,6.60
2018-06-10T11:45:25.780Z,7.57
2018-06-10T11:47:52.972Z,6.93
2018-06-10T11:50:20.117Z,5.20
2018-06-10T11:52:47.233Z,5.80
2018-06-10T11:55:14.365Z,6.80
2018-06-10T11:57:41.542Z,5.40
2018-06-10T12:00:08.675Z,5.50
2018-06-10T12:02:35.819Z,5.77
2018-06-10T12:05:03.129Z,5.50
2018-06-10T12:07:30.277Z,6.30
2018-06-10T12:09:57.398Z,7.60
2018-06-10T12:12:25.377Z,7.67
2018-06-10T12:14:52.512Z,7.70
2018-06-10T12:17:20.248Z,10.17
2018-06-10T12:19:47.404Z,6.87
2018-06-10T12:22:14.569Z,7.83
2018-06-10T12:24:41.666Z,10.70
2018-06-10T12:27:08.817Z,7.33
2018-06-10T12:29:35.925Z,8.60
2018-06-10T12:32:03.061Z,7.60
2018-06-10T12:34:30.208Z,6.80
2018-06-10T12:36:57.383Z,7.63
2018-06-10T12:39:24.586Z,7.63
2018-06-10T12:41:51.762Z,7.93
2018-06-10T12:44:18.896Z,7.87
2018-06-10T12:46:46.077Z,7.97
2018-06-10T12:49:13.263Z,8.93
2018-06-10T12:51:40.346Z,8.20
2018-06-10T12:54:07.511Z,7.60
2018-06-10T12:56:34.692Z,7.30
2018-06-10T12:59:01.889Z,7.73
2018-06-10T13:01:29.091Z,8.40
2018-06-10T13:03:56.414Z,6.80
2018-06-10T13:06:23.579Z,6.63
2018-06-10T13:08:50.742Z,6.57
2018-06-10T13:11:17.878Z,7.80
2018-06-10T13:13:45.058Z,7.20
2018-06-10T13:16:12.264Z,7.03
2018-06-10T13:18:39.989Z,8.27
2018-06-10T13:21:07.164Z,7.20
2018-06-10T13:23:34.397Z,7.80
2018-06-10T13:26:01.636Z,7.50
2018-06-10T13:28:28.809Z,7.97
2018-06-10T13:30:56.011Z,7.70
2018-06-10T13:33:23.223Z,8.97
2018-06-10T13:35:50.421Z,7.27
2018-06-10T13:38:17.642Z,7.37
2018-06-10T13:40:44.854Z,7.50
2018-06-10T13:43:12.051Z,7.20
2018-06-10T13:45:39.288Z,8.80
2018-06-10T13:48:06.847Z,7.27
2018-06-10T13:50:34.016Z,7.97
2018-06-10T13:53:01.225Z,7.47
2018-06-10T13:55:28.404Z,6.87
2018-06-10T13:57:55.659Z,7.53
2018-06-10T14:00:22.831Z,7.47
2018-06-10T14:02:50.078Z,8.17
2018-06-10T14:05:17.362Z,7.40
2018-06-10T14:07:44.606Z,8.20
2018-06-10T14:10:11.786Z,7.60
2018-06-10T14:12:39.011Z,7.03
2018-06-10T14:15:06.277Z,7.93
2018-06-10T14:17:33.450Z,6.40
2018-06-10T14:20:00.666Z,7.87
2018-06-10T14:22:27.847Z,7.20
2018-06-10T14:24:55.044Z,6.50
2018-06-10T14:27:22.209Z,7.20
2018-06-10T14:29:49.421Z,8.63
2018-06-10T14:32:16.630Z,6.33
2018-06-10T14:34:43.805Z,8.83
2018-06-10T14:37:11.094Z,7.37
2018-06-10T14:39:38.327Z,6.83
2018-06-10T14:42:05.790Z,6.40
2018-06-10T14:44:32.979Z,7.20
2018-06-10T14:47:00.129Z,6.70
2018-06-10T14:49:27.363Z,7.80
2018-06-10T14:51:54.581Z,6.60
2018-06-10T14:54:21.752Z,6.50
2018-06-10T14:56:48.930Z,6.73
2018-06-10T14:59:16.125Z,6.67
2018-06-10T15:01:43.335Z,6.03
2018-06-10T15:04:10.577Z,6.83
2018-06-10T15:06:37.754Z,7.00
2018-06-10T15:09:07.278Z,6.93
2018-06-10T15:11:34.402Z,6.10
2018-06-10T15:14:01.597Z,7.03
2018-06-10T15:16:28.825Z,7.20
2018-06-10T15:18:56.038Z,8.17
2018-06-10T15:21:23.211Z,7.97
2018-06-10T15:23:50.415Z,7.37
2018-06-10T15:26:17.689Z,7.07
2018-06-10T15:28:44.907Z,7.83
2018-06-10T15:31:12.037Z,7.80
2018-06-10T15:33:39.200Z,7.60
2018-06-10T15:36:06.365Z,7.73
2018-06-10T15:38:33.513Z,7.47
2018-06-10T15:41:00.614Z,7.60
2018-06-10T15:43:27.835Z,7.10
2018-06-10T15:45:55.017Z,8.50
2018-06-10T15:48:22.188Z,8.90
2018-06-10T15:50:49.356Z,8.20
2018-06-10T15:53:16.528Z,8.97
2018-06-10T15:55:43.699Z,7.97
2018-06-10T15:58:10.858Z,8.20
2018-06-10T16:00:38.076Z,8.23
2018-06-10T16:03:05.237Z,7.93
2018-06-10T16:05:32.486Z,8.23
2018-06-10T16:07:59.686Z,8.43
2018-06-10T16:10:26.850Z,8.97
2018-06-10T16:12:54.050Z,9.53
2018-06-10T16:15:21.215Z,8.27
2018-06-10T16:17:48.442Z,8.90
2018-06-10T16:20:15.528Z,8.33
2018-06-10T16:22:42.755Z,10.00
2018-06-10T16:25:09.895Z,9.50
2018-06-10T16:27:37.057Z,8.87
2018-06-10T16:30:05.001Z,7.27
2018-06-10T16:32:32.208Z,7.77
2018-06-10T16:34:59.337Z,7.60
2018-06-10T16:37:27.742Z,7.10
2018-06-10T16:39:54.919Z,7.67
2018-06-10T16:42:22.138Z,7.00
2018-06-10T16:44:49.313Z,7.30
2018-06-10T16:47:16.505Z,7.37
2018-06-10T16:49:43.745Z,7.47
2018-06-10T16:52:10.957Z,6.10
2018-06-10T16:54:38.166Z,7.03
2018-06-10T16:57:05.341Z,7.53
2018-06-10T16:59:32.578Z,7.27
2018-06-10T17:01:59.697Z,5.60
2018-06-10T17:04:26.885Z,6.27
2018-06-10T17:06:54.005Z,5.80
2018-06-10T17:09:21.199Z,6.00
2018-06-10T17:11:48.449Z,6.50
2018-06-10T17:14:15.608Z,7.00
2018-06-10T17:16:43.648Z,6.60
2018-06-10T17:19:10.852Z,6.30
2018-06-10T17:21:38.014Z,6.50
2018-06-10T17:24:05.231Z,7.10
2018-06-10T17:26:32.433Z,7.07
2018-06-10T17:28:59.645Z,6.63
2018-06-10T17:31:26.847Z,7.67
2018-06-10T17:33:54.001Z,7.60
2018-06-10T17:36:21.162Z,7.23
2018-06-10T17:38:48.332Z,7.43
2018-06-10T17:41:15.498Z,7.50
2018-06-10T17:43:42.665Z,7.33
2018-06-10T17:46:09.865Z,7.63
2018-06-10T17:48:37.061Z,8.47
2018-06-10T17:51:04.258Z,7.63
2018-06-10T17:53:31.417Z,9.20
2018-06-10T17:55:58.583Z,7.73
2018-06-10T17:58:25.714Z,9.50
2018-06-10T18:00:52.826Z,9.00
2018-06-10T18:03:20.012Z,9.60
2018-06-10T18:05:47.149Z,9.40
2018-06-10T18:08:14.314Z,10.67
2018-06-10T18:10:41.520Z,10.80
2018-06-10T18:13:09.107Z,9.93
2018-06-10T18:15:36.330Z,10.10
2018-06-10T18:18:03.530Z,9.83
2018-06-10T18:20:30.699Z,9.80
2018-06-10T18:22:57.851Z,9.53
2018-06-10T18:25:25.036Z,8.07
2018-06-10T18:27:52.335Z,8.70
2018-06-10T18:30:19.550Z,8.00
2018-06-10T18:32:46.733Z,8.23
2018-06-10T18:35:14.282Z,8.10
2018-06-10T18:37:41.438Z,8.50
2018-06-10T18:40:08.585Z,7.83
2018-06-10T18:42:35.820Z,8.50
2018-06-10T18:45:03.120Z,7.97
2018-06-10T18:47:30.459Z,6.93
2018-06-10T18:49:57.617Z,8.00
2018-06-10T18:52:24.799Z,8.00
2018-06-10T18:54:51.983Z,9.10
2018-06-10T18:57:19.149Z,9.77
2018-06-10T18:59:46.335Z,8.40
2018-06-10T19:02:13.498Z,8.70
2018-06-10T19:04:40.710Z,7.67
2018-06-10T19:07:07.902Z,9.27
2018-06-10T19:09:35.101Z,11.07
2018-06-10T19:12:02.351Z,10.73
2018-06-10T19:14:29.537Z,10.17
2018-06-10T19:16:56.748Z,11.90
2018-06-10T19:19:23.952Z,12.77
2018-06-10T19:21:51.149Z,12.30
2018-06-10T19:24:18.348Z,13.77
2018-06-10T19:26:45.587Z,10.90
2018-06-10T19:29:12.864Z,10.63
2018-06-10T19:31:39.993Z,12.33
2018-06-10T19:34:07.189Z,10.60
2018-06-10T19:36:34.365Z,9.63
2018-06-10T19:39:01.632Z,10.47
2018-06-10T19:41:28.806Z,8.93
2018-06-10T19:43:55.988Z,10.00
2018-06-10T19:46:23.253Z,8.53
2018-06-10T19:48:50.450Z,9.10
2018-06-10T19:51:17.652Z,9.67
2018-06-10T19:53:44.817Z,8.87
2018-06-10T19:56:12.008Z,9.43
2018-06-10T19:58:39.229Z,10.10
2018-06-10T20:01:06.388Z,10.10
2018-06-10T20:03:33.581Z,12.63
2018-06-10T20:06:00.760Z,8.90
2018-06-10T20:08:27.999Z,9.07
2018-06-10T20:10:55.218Z,9.60
2018-06-10T20:13:22.377Z,9.30
2018-06-10T20:15:49.564Z,10.70
2018-06-10T20:18:16.800Z,10.83
2018-06-10T20:20:44.001Z,11.93
2018-06-10T20:23:11.204Z,14.23
2018-06-10T20:25:38.434Z,12.50
2018-06-10T20:28:05.646Z,17.10
2018-06-10T20:30:32.847Z,10.90
2018-06-10T20:33:00.027Z,11.20
2018-06-10T20:35:27.210Z,10.50
2018-06-10T20:37:54.429Z,11.73
2018-06-10T20:40:21.567Z,10.93
2018-06-10T20:42:48.760Z,10.77
2018-06-10T20:45:15.948Z,12.17
2018-06-10T20:47:43.053Z,13.37
2018-06-10T20:50:10.274Z,9.77
2018-06-10T20:52:37.393Z,11.10
2018-06-10T20:55:04.593Z,10.07
2018-06-10T20:57:32.168Z,10.30
2018-06-10T20:59:59.347Z,8.87
2018-06-10T21:02:26.554Z,8.83
2018-06-10T21:04:53.738Z,9.20
2018-06-10T21:07:20.868Z,8.73
2018-06-10T21:09:48.043Z,9.13
2018-06-10T21:12:15.212Z,10.90
2018-06-10T21:14:42.496Z,9.73
2018-06-10T21:17:09.809Z,10.10
2018-06-10T21:19:37.038Z,10.33
2018-06-10T21:22:04.277Z,9.97
2018-06-10T21:24:31.422Z,10.07
2018-06-10T21:26:58.585Z,12.70
2018-06-10T21:29:25.774Z,10.47
2018-06-10T21:31:52.963Z,11.33
2018-06-10T21:34:20.113Z,10.60
2018-06-10T21:36:47.258Z,10.67
2018-06-10T21:39:14.408Z,12.10
2018-06-10T21:41:41.526Z,10.80
2018-06-10T21:44:08.689Z,11.33
2018-06-10T21:46:35.838Z,11.60
2018-06-10T21:49:03.004Z,11.57
2018-06-10T21:51:30.168Z,12.43
2018-06-10T21:53:57.310Z,14.90
2018-06-10T21:56:24.815Z,16.53
2018-06-10T21:58:52.240Z,17.47
2018-06-10T22:01:19.408Z,16.67
2018-06-10T22:03:46.599Z,17.57
2018-06-10T22:06:13.754Z,16.67
2018-06-10T22:08:40.945Z,17.03
2018-06-10T22:11:08.096Z,16.10
2018-06-10T22:13:35.357Z,17.30
2018-06-10T22:16:02.554Z,25.00
2018-06-10T22:18:29.720Z,18.40
2018-06-10T22:20:56.824Z,20.33
2018-06-10T22:23:23.972Z,18.13
2018-06-10T22:25:51.143Z,20.47
2018-06-10T22:28:18.344Z,16.27
2018-06-10T22:30:45.503Z,14.97
2018-06-10T22:33:12.677Z,14.13
2018-06-10T22:35:39.806Z,16.43
2018-06-10T22:38:07.014Z,15.40
2018-06-10T22:40:34.185Z,14.73
2018-06-10T22:43:01.332Z,14.47
2018-06-10T22:45:28.446Z,14.53
2018-06-10T22:47:55.545Z,15.40
2018-06-10T22:50:22.718Z,14.00
2018-06-10T22:53:00.048Z,12.30
2018-06-10T22:55:27.220Z,15.07
2018-06-10T22:57:54.399Z,15.23
2018-06-10T23:00:21.505Z,13.37
2018-06-10T23:02:48.666Z,14.27
2018-06-10T23:05:15.283Z,13.80
2018-06-10T23:07:42.481Z,13.77
2018-06-10T23:10:09.617Z,14.00
2018-06-10T23:12:36.774Z,12.60
2018-06-10T23:15:04.128Z,13.43
2018-06-10T23:17:31.315Z,13.37
2018-06-10T23:19:58.476Z,15.13
2018-06-10T23:22:25.649Z,14.33
2018-06-10T23:24:52.751Z,18.13
2018-06-10T23:27:19.947Z,18.57
2018-06-10T23:29:47.109Z,17.10
2018-06-10T23:32:14.232Z,17.00
2018-06-10T23:34:41.401Z,15.77
2018-06-10T23:37:08.555Z,17.37
2018-06-10T23:39:35.701Z,16.90
2018-06-10T23:42:02.836Z,16.63
2018-06-10T23:44:29.980Z,15.37
2018-06-10T23:46:57.105Z,18.43
2018-06-10T23:49:24.265Z,16.03
2018-06-10T23:51:51.449Z,16.27
2018-06-10T23:54:18.621Z,15.57
2018-06-10T23:56:45.780Z,15.40
2018-06-10T23:59:12.952Z,18.30
